sensor_id;sensor_type;location;lat;lon;timestamp;P1;durP1;ratioP1;P2;durP2;ratioP2
56790;SDS011;42658;46.072;14.474;2022-07-19T00:00:14;4.03;;;1.30;;
56790;SDS011;42658;46.072;14.474;2022-07-19T00:02:42;3.15;;;1.30;;
56790;SDS011;42658;46.072;14.474;2022-07-19T00:05:09;1.58;;;1.33;;
56790;SDS011;42658;46.072;14.474;2022-07-19T00:07:37;2.58;;;1.20;;
56790;SDS011;42658;46.072;14.474;2022-07-19T00:10:04;1.35;;;1.13;;
56790;SDS011;42658;46.072;14.474;2022-07-19T00:12:33;3.03;;;1.25;;
56790;SDS011;42658;46.072;14.474;2022-07-19T00:15:00;1.45;;;1.30;;
56790;SDS011;42658;46.072;14.474;2022-07-19T00:17:27;2.75;;;1.52;;
56790;SDS011;42658;46.072;14.474;2022-07-19T00:19:54;1.48;;;1.20;;
56790;SDS011;42658;46.072;14.474;2022-07-19T00:22:21;1.33;;;1.23;;
56790;SDS011;42658;46.072;14.474;2022-07-19T00:24:48;2.72;;;1.30;;
56790;SDS011;42658;46.072;14.474;2022-07-19T00:27:15;1.75;;;1.25;;
56790;SDS011;42658;46.072;14.474;2022-07-19T00:29:41;2.08;;;1.35;;
56790;SDS011;42658;46.072;14.474;2022-07-19T00:32:08;1.90;;;1.25;;
56790;SDS011;42658;46.072;14.474;2022-07-19T00:34:35;2.15;;;1.58;;
56790;SDS011;42658;46.072;14.474;2022-07-19T00:37:02;2.85;;;1.40;;
56790;SDS011;42658;46.072;14.474;2022-07-19T00:39:29;2.50;;;1.40;;
56790;SDS011;42658;46.072;14.474;2022-07-19T00:41:56;2.08;;;1.17;;
56790;SDS011;42658;46.072;14.474;2022-07-19T00:44:23;2.75;;;1.45;;
56790;SDS011;42658;46.072;14.474;2022-07-19T00:46:50;2.00;;;1.40;;
56790;SDS011;42658;46.072;14.474;2022-07-19T00:49:17;1.50;;;1.30;;
56790;SDS011;42658;46.072;14.474;2022-07-19T00:51:44;2.90;;;1.60;;
56790;SDS011;42658;46.072;14.474;2022-07-19T00:54:12;2.15;;;1.60;;
56790;SDS011;42658;46.072;14.474;2022-07-19T00:56:39;1.50;;;1.40;;
56790;SDS011;42658;46.072;14.474;2022-07-19T00:59:07;1.33;;;1.20;;
56790;SDS011;42658;46.072;14.474;2022-07-19T01:01:34;2.85;;;1.27;;
56790;SDS011;42658;46.072;14.474;2022-07-19T01:04:02;3.28;;;1.25;;
56790;SDS011;42658;46.072;14.474;2022-07-19T01:06:29;2.47;;;1.27;;
56790;SDS011;42658;46.072;14.474;2022-07-19T01:08:56;2.03;;;1.40;;
56790;SDS011;42658;46.072;14.474;2022-07-19T01:11:23;1.75;;;1.25;;
56790;SDS011;42658;46.072;14.474;2022-07-19T01:13:50;2.58;;;1.65;;
56790;SDS011;42658;46.072;14.474;2022-07-19T01:16:17;2.72;;;1.20;;
56790;SDS011;42658;46.072;14.474;2022-07-19T01:18:44;2.70;;;1.55;;
56790;SDS011;42658;46.072;14.474;2022-07-19T01:21:21;1.75;;;1.40;;
56790;SDS011;42658;46.072;14.474;2022-07-19T01:23:49;1.92;;;1.25;;
56790;SDS011;42658;46.072;14.474;2022-07-19T01:26:16;2.05;;;1.30;;
56790;SDS011;42658;46.072;14.474;2022-07-19T01:28:44;1.80;;;1.45;;
56790;SDS011;42658;46.072;14.474;2022-07-19T01:31:11;3.13;;;1.33;;
56790;SDS011;42658;46.072;14.474;2022-07-19T01:33:39;2.85;;;1.42;;
56790;SDS011;42658;46.072;14.474;2022-07-19T01:36:10;3.20;;;1.42;;
56790;SDS011;42658;46.072;14.474;2022-07-19T01:38:37;1.90;;;1.40;;
56790;SDS011;42658;46.072;14.474;2022-07-19T01:41:06;1.58;;;1.20;;
56790;SDS011;42658;46.072;14.474;2022-07-19T01:43:34;2.90;;;1.50;;
56790;SDS011;42658;46.072;14.474;2022-07-19T01:46:01;1.92;;;1.38;;
56790;SDS011;42658;46.072;14.474;2022-07-19T01:48:29;1.77;;;1.30;;
56790;SDS011;42658;46.072;14.474;2022-07-19T01:50:56;2.78;;;1.50;;
56790;SDS011;42658;46.072;14.474;2022-07-19T01:53:24;2.92;;;1.48;;
56790;SDS011;42658;46.072;14.474;2022-07-19T01:55:51;2.42;;;1.58;;
56790;SDS011;42658;46.072;14.474;2022-07-19T01:58:18;1.52;;;1.27;;
56790;SDS011;42658;46.072;14.474;2022-07-19T02:00:45;2.70;;;1.30;;
56790;SDS011;42658;46.072;14.474;2022-07-19T02:03:12;1.60;;;1.25;;
56790;SDS011;42658;46.072;14.474;2022-07-19T02:05:39;2.58;;;1.27;;
56790;SDS011;42658;46.072;14.474;2022-07-19T02:08:05;1.80;;;1.20;;
56790;SDS011;42658;46.072;14.474;2022-07-19T02:24:13;1.58;;;1.20;;
56790;SDS011;42658;46.072;14.474;2022-07-19T02:26:40;2.78;;;1.30;;
56790;SDS011;42658;46.072;14.474;2022-07-19T02:29:07;1.20;;;1.08;;
56790;SDS011;42658;46.072;14.474;2022-07-19T02:31:35;2.42;;;1.48;;
56790;SDS011;42658;46.072;14.474;2022-07-19T02:34:03;1.85;;;1.30;;
56790;SDS011;42658;46.072;14.474;2022-07-19T02:36:30;2.55;;;1.40;;
56790;SDS011;42658;46.072;14.474;2022-07-19T02:38:57;1.33;;;1.17;;
56790;SDS011;42658;46.072;14.474;2022-07-19T02:41:24;1.95;;;1.40;;
56790;SDS011;42658;46.072;14.474;2022-07-19T02:43:51;1.27;;;1.17;;
56790;SDS011;42658;46.072;14.474;2022-07-19T02:46:18;2.95;;;1.30;;
56790;SDS011;42658;46.072;14.474;2022-07-19T02:48:45;2.60;;;1.25;;
56790;SDS011;42658;46.072;14.474;2022-07-19T02:51:18;2.30;;;1.20;;
56790;SDS011;42658;46.072;14.474;2022-07-19T02:53:45;3.15;;;1.63;;
56790;SDS011;42658;46.072;14.474;2022-07-19T02:56:11;1.42;;;1.20;;
56790;SDS011;42658;46.072;14.474;2022-07-19T02:58:38;2.15;;;1.30;;
56790;SDS011;42658;46.072;14.474;2022-07-19T03:01:05;5.68;;;1.33;;
56790;SDS011;42658;46.072;14.474;2022-07-19T03:03:32;1.45;;;1.15;;
56790;SDS011;42658;46.072;14.474;2022-07-19T03:06:12;1.92;;;1.40;;
56790;SDS011;42658;46.072;14.474;2022-07-19T03:08:41;2.22;;;1.25;;
56790;SDS011;42658;46.072;14.474;2022-07-19T03:11:08;2.63;;;1.65;;
56790;SDS011;42658;46.072;14.474;2022-07-19T03:13:35;1.40;;;1.10;;
56790;SDS011;42658;46.072;14.474;2022-07-19T03:16:02;4.88;;;1.38;;
56790;SDS011;42658;46.072;14.474;2022-07-19T03:18:29;1.35;;;1.10;;
56790;SDS011;42658;46.072;14.474;2022-07-19T03:20:56;3.92;;;1.60;;
56790;SDS011;42658;46.072;14.474;2022-07-19T03:23:25;2.55;;;1.63;;
56790;SDS011;42658;46.072;14.474;2022-07-19T03:26:04;3.53;;;1.45;;
56790;SDS011;42658;46.072;14.474;2022-07-19T03:28:31;3.85;;;1.60;;
56790;SDS011;42658;46.072;14.474;2022-07-19T03:30:59;1.80;;;1.23;;
56790;SDS011;42658;46.072;14.474;2022-07-19T03:33:26;2.25;;;1.45;;
56790;SDS011;42658;46.072;14.474;2022-07-19T03:35:54;1.92;;;1.55;;
56790;SDS011;42658;46.072;14.474;2022-07-19T03:38:21;3.03;;;1.48;;
56790;SDS011;42658;46.072;14.474;2022-07-19T03:40:48;3.22;;;1.70;;
56790;SDS011;42658;46.072;14.474;2022-07-19T03:43:15;2.60;;;1.55;;
56790;SDS011;42658;46.072;14.474;2022-07-19T03:45:43;2.17;;;1.55;;
56790;SDS011;42658;46.072;14.474;2022-07-19T03:48:11;2.60;;;1.42;;
56790;SDS011;42658;46.072;14.474;2022-07-19T03:50:39;2.50;;;1.58;;
56790;SDS011;42658;46.072;14.474;2022-07-19T03:53:06;1.95;;;1.60;;
56790;SDS011;42658;46.072;14.474;2022-07-19T03:55:33;4.45;;;1.55;;
56790;SDS011;42658;46.072;14.474;2022-07-19T03:58:00;2.53;;;1.52;;
56790;SDS011;42658;46.072;14.474;2022-07-19T04:00:27;3.53;;;1.60;;
56790;SDS011;42658;46.072;14.474;2022-07-19T04:02:54;1.60;;;1.30;;
56790;SDS011;42658;46.072;14.474;2022-07-19T04:05:21;3.35;;;1.55;;
56790;SDS011;42658;46.072;14.474;2022-07-19T04:07:48;3.20;;;1.45;;
56790;SDS011;42658;46.072;14.474;2022-07-19T04:10:15;2.80;;;1.58;;
56790;SDS011;42658;46.072;14.474;2022-07-19T04:12:42;3.90;;;1.60;;
56790;SDS011;42658;46.072;14.474;2022-07-19T04:15:09;2.45;;;1.50;;
56790;SDS011;42658;46.072;14.474;2022-07-19T04:17:36;3.20;;;1.63;;
56790;SDS011;42658;46.072;14.474;2022-07-19T04:20:03;4.05;;;1.50;;
56790;SDS011;42658;46.072;14.474;2022-07-19T04:22:31;1.73;;;1.30;;
56790;SDS011;42658;46.072;14.474;2022-07-19T04:24:58;3.45;;;1.48;;
56790;SDS011;42658;46.072;14.474;2022-07-19T04:27:26;3.05;;;1.52;;
56790;SDS011;42658;46.072;14.474;2022-07-19T04:29:53;3.40;;;1.77;;
56790;SDS011;42658;46.072;14.474;2022-07-19T04:32:20;3.67;;;1.52;;
56790;SDS011;42658;46.072;14.474;2022-07-19T04:34:47;3.10;;;1.60;;
56790;SDS011;42658;46.072;14.474;2022-07-19T04:37:15;2.88;;;1.48;;
56790;SDS011;42658;46.072;14.474;2022-07-19T04:39:42;3.00;;;1.75;;
56790;SDS011;42658;46.072;14.474;2022-07-19T04:42:08;2.80;;;1.70;;
56790;SDS011;42658;46.072;14.474;2022-07-19T04:44:35;1.48;;;1.27;;
56790;SDS011;42658;46.072;14.474;2022-07-19T04:47:02;2.00;;;1.40;;
56790;SDS011;42658;46.072;14.474;2022-07-19T04:49:29;3.47;;;1.60;;
56790;SDS011;42658;46.072;14.474;2022-07-19T04:51:56;4.15;;;1.67;;
56790;SDS011;42658;46.072;14.474;2022-07-19T04:54:23;4.25;;;1.60;;
56790;SDS011;42658;46.072;14.474;2022-07-19T04:56:50;1.60;;;1.40;;
56790;SDS011;42658;46.072;14.474;2022-07-19T04:59:17;2.35;;;1.50;;
56790;SDS011;42658;46.072;14.474;2022-07-19T05:01:44;1.98;;;1.48;;
56790;SDS011;42658;46.072;14.474;2022-07-19T05:04:18;4.97;;;1.65;;
56790;SDS011;42658;46.072;14.474;2022-07-19T05:06:45;2.33;;;1.48;;
56790;SDS011;42658;46.072;14.474;2022-07-19T05:09:12;3.63;;;1.60;;
56790;SDS011;42658;46.072;14.474;2022-07-19T05:11:43;3.47;;;1.63;;
56790;SDS011;42658;46.072;14.474;2022-07-19T05:14:10;3.47;;;1.90;;
56790;SDS011;42658;46.072;14.474;2022-07-19T05:16:37;2.72;;;1.92;;
56790;SDS011;42658;46.072;14.474;2022-07-19T05:19:04;1.90;;;1.40;;
56790;SDS011;42658;46.072;14.474;2022-07-19T05:21:31;4.22;;;1.70;;
56790;SDS011;42658;46.072;14.474;2022-07-19T05:23:58;3.35;;;1.67;;
56790;SDS011;42658;46.072;14.474;2022-07-19T05:26:25;2.63;;;1.40;;
56790;SDS011;42658;46.072;14.474;2022-07-19T05:28:52;3.03;;;1.65;;
56790;SDS011;42658;46.072;14.474;2022-07-19T05:31:19;3.03;;;1.80;;
56790;SDS011;42658;46.072;14.474;2022-07-19T05:33:45;2.03;;;1.67;;
56790;SDS011;42658;46.072;14.474;2022-07-19T05:36:12;2.40;;;1.40;;
56790;SDS011;42658;46.072;14.474;2022-07-19T05:38:39;2.42;;;1.50;;
56790;SDS011;42658;46.072;14.474;2022-07-19T05:41:07;2.65;;;1.55;;
56790;SDS011;42658;46.072;14.474;2022-07-19T05:43:37;2.25;;;1.73;;
56790;SDS011;42658;46.072;14.474;2022-07-19T05:46:04;2.47;;;1.45;;
56790;SDS011;42658;46.072;14.474;2022-07-19T05:48:31;3.40;;;1.50;;
56790;SDS011;42658;46.072;14.474;2022-07-19T05:50:58;2.35;;;1.20;;
56790;SDS011;42658;46.072;14.474;2022-07-19T05:53:25;3.25;;;1.45;;
56790;SDS011;42658;46.072;14.474;2022-07-19T05:55:53;3.70;;;1.75;;
56790;SDS011;42658;46.072;14.474;2022-07-19T05:58:20;1.75;;;1.42;;
56790;SDS011;42658;46.072;14.474;2022-07-19T06:00:47;2.95;;;1.50;;
56790;SDS011;42658;46.072;14.474;2022-07-19T06:03:33;2.55;;;1.48;;
56790;SDS011;42658;46.072;14.474;2022-07-19T06:06:00;3.33;;;1.50;;
56790;SDS011;42658;46.072;14.474;2022-07-19T06:08:27;3.40;;;1.73;;
56790;SDS011;42658;46.072;14.474;2022-07-19T06:10:54;3.47;;;1.60;;
56790;SDS011;42658;46.072;14.474;2022-07-19T06:13:21;3.17;;;1.67;;
56790;SDS011;42658;46.072;14.474;2022-07-19T06:15:48;2.97;;;1.42;;
56790;SDS011;42658;46.072;14.474;2022-07-19T06:18:16;2.20;;;1.55;;
56790;SDS011;42658;46.072;14.474;2022-07-19T06:20:46;6.05;;;1.50;;
56790;SDS011;42658;46.072;14.474;2022-07-19T06:23:13;2.67;;;1.52;;
56790;SDS011;42658;46.072;14.474;2022-07-19T06:25:45;3.03;;;1.38;;
56790;SDS011;42658;46.072;14.474;2022-07-19T06:28:12;2.92;;;1.50;;
56790;SDS011;42658;46.072;14.474;2022-07-19T06:30:39;2.38;;;1.33;;
56790;SDS011;42658;46.072;14.474;2022-07-19T06:33:06;2.60;;;1.60;;
56790;SDS011;42658;46.072;14.474;2022-07-19T06:35:33;2.92;;;1.50;;
56790;SDS011;42658;46.072;14.474;2022-07-19T06:38:00;2.20;;;1.60;;
56790;SDS011;42658;46.072;14.474;2022-07-19T06:40:27;2.28;;;1.42;;
56790;SDS011;42658;46.072;14.474;2022-07-19T06:42:54;3.08;;;1.50;;
56790;SDS011;42658;46.072;14.474;2022-07-19T06:45:21;2.22;;;1.52;;
56790;SDS011;42658;46.072;14.474;2022-07-19T06:47:48;4.68;;;1.60;;
56790;SDS011;42658;46.072;14.474;2022-07-19T06:50:17;3.55;;;1.40;;
56790;SDS011;42658;46.072;14.474;2022-07-19T06:53:04;3.70;;;1.77;;
56790;SDS011;42658;46.072;14.474;2022-07-19T06:55:31;3.60;;;1.67;;
56790;SDS011;42658;46.072;14.474;2022-07-19T06:57:58;2.72;;;1.40;;
56790;SDS011;42658;46.072;14.474;2022-07-19T07:00:25;3.28;;;1.60;;
56790;SDS011;42658;46.072;14.474;2022-07-19T07:02:52;3.92;;;1.80;;
56790;SDS011;42658;46.072;14.474;2022-07-19T07:05:19;6.95;;;2.05;;
56790;SDS011;42658;46.072;14.474;2022-07-19T07:07:46;4.15;;;2.00;;
56790;SDS011;42658;46.072;14.474;2022-07-19T07:10:15;7.45;;;2.25;;
56790;SDS011;42658;46.072;14.474;2022-07-19T07:12:42;4.80;;;2.00;;
56790;SDS011;42658;46.072;14.474;2022-07-19T07:15:09;4.68;;;2.00;;
56790;SDS011;42658;46.072;14.474;2022-07-19T07:17:36;3.53;;;1.92;;
56790;SDS011;42658;46.072;14.474;2022-07-19T07:20:04;5.43;;;2.15;;
56790;SDS011;42658;46.072;14.474;2022-07-19T07:22:33;7.05;;;2.00;;
56790;SDS011;42658;46.072;14.474;2022-07-19T07:25:00;5.00;;;1.75;;
56790;SDS011;42658;46.072;14.474;2022-07-19T07:27:28;5.05;;;2.17;;
56790;SDS011;42658;46.072;14.474;2022-07-19T07:29:55;5.43;;;2.10;;
56790;SDS011;42658;46.072;14.474;2022-07-19T07:32:22;4.80;;;1.85;;
56790;SDS011;42658;46.072;14.474;2022-07-19T07:34:49;4.85;;;1.90;;
56790;SDS011;42658;46.072;14.474;2022-07-19T07:37:16;4.13;;;2.25;;
56790;SDS011;42658;46.072;14.474;2022-07-19T07:39:43;5.32;;;2.03;;
56790;SDS011;42658;46.072;14.474;2022-07-19T07:42:09;4.55;;;1.85;;
56790;SDS011;42658;46.072;14.474;2022-07-19T07:44:39;5.78;;;2.05;;
56790;SDS011;42658;46.072;14.474;2022-07-19T07:47:06;3.80;;;2.10;;
56790;SDS011;42658;46.072;14.474;2022-07-19T07:49:36;2.70;;;1.83;;
56790;SDS011;42658;46.072;14.474;2022-07-19T07:52:05;3.90;;;2.00;;
56790;SDS011;42658;46.072;14.474;2022-07-19T07:54:32;5.88;;;2.03;;
56790;SDS011;42658;46.072;14.474;2022-07-19T07:57:02;4.18;;;1.85;;
56790;SDS011;42658;46.072;14.474;2022-07-19T07:59:29;3.83;;;1.92;;
56790;SDS011;42658;46.072;14.474;2022-07-19T08:01:56;2.83;;;1.90;;
56790;SDS011;42658;46.072;14.474;2022-07-19T08:04:25;4.68;;;1.67;;
56790;SDS011;42658;46.072;14.474;2022-07-19T08:06:53;3.17;;;1.70;;
56790;SDS011;42658;46.072;14.474;2022-07-19T08:09:20;3.80;;;1.98;;
56790;SDS011;42658;46.072;14.474;2022-07-19T08:11:47;2.15;;;1.40;;
56790;SDS011;42658;46.072;14.474;2022-07-19T08:14:14;5.03;;;1.77;;
56790;SDS011;42658;46.072;14.474;2022-07-19T08:16:41;5.55;;;1.95;;
56790;SDS011;42658;46.072;14.474;2022-07-19T08:19:09;5.57;;;1.95;;
56790;SDS011;42658;46.072;14.474;2022-07-19T08:21:36;4.00;;;1.50;;
56790;SDS011;42658;46.072;14.474;2022-07-19T08:24:04;3.45;;;1.70;;
56790;SDS011;42658;46.072;14.474;2022-07-19T08:26:38;3.70;;;1.60;;
56790;SDS011;42658;46.072;14.474;2022-07-19T08:29:05;3.42;;;2.00;;
56790;SDS011;42658;46.072;14.474;2022-07-19T08:31:32;5.05;;;1.80;;
56790;SDS011;42658;46.072;14.474;2022-07-19T08:33:59;2.97;;;1.60;;
56790;SDS011;42658;46.072;14.474;2022-07-19T08:36:26;3.20;;;1.77;;
56790;SDS011;42658;46.072;14.474;2022-07-19T08:38:53;3.03;;;1.65;;
56790;SDS011;42658;46.072;14.474;2022-07-19T08:41:20;2.60;;;1.48;;
56790;SDS011;42658;46.072;14.474;2022-07-19T08:43:48;4.45;;;1.83;;
56790;SDS011;42658;46.072;14.474;2022-07-19T08:46:16;2.58;;;1.63;;
56790;SDS011;42658;46.072;14.474;2022-07-19T08:48:46;3.40;;;1.80;;
56790;SDS011;42658;46.072;14.474;2022-07-19T08:51:16;3.15;;;1.75;;
56790;SDS011;42658;46.072;14.474;2022-07-19T08:53:45;3.13;;;1.95;;
56790;SDS011;42658;46.072;14.474;2022-07-19T08:56:13;1.90;;;1.35;;
56790;SDS011;42658;46.072;14.474;2022-07-19T08:58:58;3.65;;;1.83;;
56790;SDS011;42658;46.072;14.474;2022-07-19T09:01:25;2.42;;;1.77;;
56790;SDS011;42658;46.072;14.474;2022-07-19T09:04:02;2.28;;;1.50;;
56790;SDS011;42658;46.072;14.474;2022-07-19T09:06:37;2.45;;;1.63;;
56790;SDS011;42658;46.072;14.474;2022-07-19T09:09:08;1.65;;;1.50;;
56790;SDS011;42658;46.072;14.474;2022-07-19T09:11:37;2.50;;;1.45;;
56790;SDS011;42658;46.072;14.474;2022-07-19T09:14:07;3.42;;;1.83;;
56790;SDS011;42658;46.072;14.474;2022-07-19T09:19:44;3.88;;;1.55;;
56790;SDS011;42658;46.072;14.474;2022-07-19T09:22:15;3.30;;;1.92;;
56790;SDS011;42658;46.072;14.474;2022-07-19T09:24:45;4.47;;;1.67;;
56790;SDS011;42658;46.072;14.474;2022-07-19T09:27:15;3.47;;;1.60;;
56790;SDS011;42658;46.072;14.474;2022-07-19T09:29:46;2.22;;;1.65;;
56790;SDS011;42658;46.072;14.474;2022-07-19T09:32:18;2.30;;;1.38;;
56790;SDS011;42658;46.072;14.474;2022-07-19T09:37:20;2.83;;;1.40;;
56790;SDS011;42658;46.072;14.474;2022-07-19T09:39:50;2.22;;;1.60;;
56790;SDS011;42658;46.072;14.474;2022-07-19T09:42:25;1.55;;;1.40;;
56790;SDS011;42658;46.072;14.474;2022-07-19T09:45:03;2.95;;;1.70;;
56790;SDS011;42658;46.072;14.474;2022-07-19T09:49:59;2.70;;;1.17;;
56790;SDS011;42658;46.072;14.474;2022-07-19T09:52:27;2.60;;;1.40;;
56790;SDS011;42658;46.072;14.474;2022-07-19T09:55:04;1.60;;;1.23;;
56790;SDS011;42658;46.072;14.474;2022-07-19T09:57:36;2.63;;;1.60;;
56790;SDS011;42658;46.072;14.474;2022-07-19T10:00:08;1.92;;;1.40;;
56790;SDS011;42658;46.072;14.474;2022-07-19T10:02:38;2.90;;;1.60;;
56790;SDS011;42658;46.072;14.474;2022-07-19T10:05:07;2.58;;;1.40;;
56790;SDS011;42658;46.072;14.474;2022-07-19T10:07:37;2.67;;;1.60;;
56790;SDS011;42658;46.072;14.474;2022-07-19T10:10:05;2.38;;;1.50;;
56790;SDS011;42658;46.072;14.474;2022-07-19T10:12:33;1.65;;;1.27;;
56790;SDS011;42658;46.072;14.474;2022-07-19T10:15:04;1.73;;;1.40;;
56790;SDS011;42658;46.072;14.474;2022-07-19T10:17:32;1.23;;;1.10;;
56790;SDS011;42658;46.072;14.474;2022-07-19T10:20:00;2.40;;;1.30;;
56790;SDS011;42658;46.072;14.474;2022-07-19T10:22:29;2.15;;;1.30;;
56790;SDS011;42658;46.072;14.474;2022-07-19T10:24:57;1.77;;;1.33;;
56790;SDS011;42658;46.072;14.474;2022-07-19T10:29:52;2.47;;;1.40;;
56790;SDS011;42658;46.072;14.474;2022-07-19T10:32:40;1.25;;;1.02;;
56790;SDS011;42658;46.072;14.474;2022-07-19T10:37:45;1.50;;;1.30;;
56790;SDS011;42658;46.072;14.474;2022-07-19T10:43:03;1.88;;;1.20;;
56790;SDS011;42658;46.072;14.474;2022-07-19T10:45:34;1.92;;;1.30;;
56790;SDS011;42658;46.072;14.474;2022-07-19T10:48:06;1.85;;;1.10;;
56790;SDS011;42658;46.072;14.474;2022-07-19T10:50:50;1.50;;;1.30;;
56790;SDS011;42658;46.072;14.474;2022-07-19T10:56:16;1.65;;;1.10;;
56790;SDS011;42658;46.072;14.474;2022-07-19T10:58:51;1.50;;;1.20;;
56790;SDS011;42658;46.072;14.474;2022-07-19T11:01:19;1.27;;;1.10;;
56790;SDS011;42658;46.072;14.474;2022-07-19T11:03:47;1.88;;;1.30;;
56790;SDS011;42658;46.072;14.474;2022-07-19T11:06:19;1.83;;;1.20;;
56790;SDS011;42658;46.072;14.474;2022-07-19T11:08:51;1.42;;;1.23;;
56790;SDS011;42658;46.072;14.474;2022-07-19T11:11:20;1.92;;;1.48;;
56790;SDS011;42658;46.072;14.474;2022-07-19T11:13:49;2.10;;;1.30;;
56790;SDS011;42658;46.072;14.474;2022-07-19T11:16:21;1.95;;;1.35;;
56790;SDS011;42658;46.072;14.474;2022-07-19T11:18:50;1.58;;;1.20;;
56790;SDS011;42658;46.072;14.474;2022-07-19T11:21:17;1.77;;;1.20;;
56790;SDS011;42658;46.072;14.474;2022-07-19T11:23:44;1.15;;;0.98;;
56790;SDS011;42658;46.072;14.474;2022-07-19T11:26:12;1.73;;;1.20;;
56790;SDS011;42658;46.072;14.474;2022-07-19T11:28:41;1.40;;;1.00;;
56790;SDS011;42658;46.072;14.474;2022-07-19T11:36:10;1.67;;;1.23;;
56790;SDS011;42658;46.072;14.474;2022-07-19T11:38:42;1.02;;;0.93;;
56790;SDS011;42658;46.072;14.474;2022-07-19T11:41:15;3.15;;;1.30;;
56790;SDS011;42658;46.072;14.474;2022-07-19T11:44:04;1.20;;;1.10;;
56790;SDS011;42658;46.072;14.474;2022-07-19T11:46:33;1.30;;;1.15;;
56790;SDS011;42658;46.072;14.474;2022-07-19T11:49:06;2.17;;;1.10;;
56790;SDS011;42658;46.072;14.474;2022-07-19T11:51:34;1.88;;;1.20;;
56790;SDS011;42658;46.072;14.474;2022-07-19T11:54:03;1.35;;;1.10;;
56790;SDS011;42658;46.072;14.474;2022-07-19T11:56:32;2.42;;;1.17;;
56790;SDS011;42658;46.072;14.474;2022-07-19T11:59:02;1.80;;;1.40;;
56790;SDS011;42658;46.072;14.474;2022-07-19T12:03:59;1.67;;;1.20;;
56790;SDS011;42658;46.072;14.474;2022-07-19T12:06:34;1.65;;;1.40;;
56790;SDS011;42658;46.072;14.474;2022-07-19T12:09:03;1.42;;;1.20;;
56790;SDS011;42658;46.072;14.474;2022-07-19T12:11:36;1.50;;;1.10;;
56790;SDS011;42658;46.072;14.474;2022-07-19T12:14:24;1.38;;;1.10;;
56790;SDS011;42658;46.072;14.474;2022-07-19T12:17:12;1.70;;;1.10;;
56790;SDS011;42658;46.072;14.474;2022-07-19T12:19:50;1.15;;;0.95;;
56790;SDS011;42658;46.072;14.474;2022-07-19T12:22:28;1.33;;;1.00;;
56790;SDS011;42658;46.072;14.474;2022-07-19T12:24:56;2.35;;;1.20;;
56790;SDS011;42658;46.072;14.474;2022-07-19T12:27:27;1.60;;;1.17;;
56790;SDS011;42658;46.072;14.474;2022-07-19T12:29:54;1.85;;;1.10;;
56790;SDS011;42658;46.072;14.474;2022-07-19T12:32:29;1.40;;;1.02;;
56790;SDS011;42658;46.072;14.474;2022-07-19T12:34:57;1.88;;;0.90;;
56790;SDS011;42658;46.072;14.474;2022-07-19T12:40:41;1.60;;;1.08;;
56790;SDS011;42658;46.072;14.474;2022-07-19T12:45:33;1.77;;;1.15;;
56790;SDS011;42658;46.072;14.474;2022-07-19T12:48:14;1.77;;;1.02;;
56790;SDS011;42658;46.072;14.474;2022-07-19T12:50:45;1.52;;;1.10;;
56790;SDS011;42658;46.072;14.474;2022-07-19T12:53:15;1.13;;;0.90;;
56790;SDS011;42658;46.072;14.474;2022-07-19T12:55:43;1.52;;;1.10;;
56790;SDS011;42658;46.072;14.474;2022-07-19T12:58:11;0.93;;;0.90;;
56790;SDS011;42658;46.072;14.474;2022-07-19T13:00:40;1.10;;;0.82;;
56790;SDS011;42658;46.072;14.474;2022-07-19T13:03:11;0.80;;;0.80;;
56790;SDS011;42658;46.072;14.474;2022-07-19T13:05:38;1.30;;;0.93;;
56790;SDS011;42658;46.072;14.474;2022-07-19T13:08:05;2.10;;;1.10;;
56790;SDS011;42658;46.072;14.474;2022-07-19T13:10:33;1.60;;;1.30;;
56790;SDS011;42658;46.072;14.474;2022-07-19T13:13:00;1.33;;;1.00;;
56790;SDS011;42658;46.072;14.474;2022-07-19T13:15:27;1.10;;;0.90;;
56790;SDS011;42658;46.072;14.474;2022-07-19T13:17:54;1.92;;;1.05;;
56790;SDS011;42658;46.072;14.474;2022-07-19T13:20:26;1.08;;;0.98;;
56790;SDS011;42658;46.072;14.474;2022-07-19T13:22:53;1.13;;;1.00;;
56790;SDS011;42658;46.072;14.474;2022-07-19T13:25:20;1.13;;;1.02;;
56790;SDS011;42658;46.072;14.474;2022-07-19T13:28:07;1.20;;;0.90;;
56790;SDS011;42658;46.072;14.474;2022-07-19T13:30:34;1.10;;;1.00;;
56790;SDS011;42658;46.072;14.474;2022-07-19T13:33:02;1.33;;;1.10;;
56790;SDS011;42658;46.072;14.474;2022-07-19T13:35:34;1.67;;;1.00;;
56790;SDS011;42658;46.072;14.474;2022-07-19T13:38:01;1.05;;;0.95;;
56790;SDS011;42658;46.072;14.474;2022-07-19T13:40:28;1.13;;;1.00;;
56790;SDS011;42658;46.072;14.474;2022-07-19T13:42:55;1.50;;;1.20;;
56790;SDS011;42658;46.072;14.474;2022-07-19T13:45:22;1.13;;;1.00;;
56790;SDS011;42658;46.072;14.474;2022-07-19T13:47:49;1.33;;;0.98;;
56790;SDS011;42658;46.072;14.474;2022-07-19T13:50:25;1.00;;;0.80;;
56790;SDS011;42658;46.072;14.474;2022-07-19T13:52:52;1.30;;;1.00;;
56790;SDS011;42658;46.072;14.474;2022-07-19T13:55:19;0.80;;;0.80;;
56790;SDS011;42658;46.072;14.474;2022-07-19T13:57:46;1.05;;;0.95;;
56790;SDS011;42658;46.072;14.474;2022-07-19T14:00:13;0.90;;;0.90;;
56790;SDS011;42658;46.072;14.474;2022-07-19T14:02:44;1.00;;;0.90;;
56790;SDS011;42658;46.072;14.474;2022-07-19T14:05:12;0.98;;;0.90;;
56790;SDS011;42658;46.072;14.474;2022-07-19T14:07:39;1.35;;;0.90;;
56790;SDS011;42658;46.072;14.474;2022-07-19T14:10:06;1.02;;;0.93;;
56790;SDS011;42658;46.072;14.474;2022-07-19T14:12:33;1.10;;;1.00;;
56790;SDS011;42658;46.072;14.474;2022-07-19T14:15:01;0.65;;;0.65;;
56790;SDS011;42658;46.072;14.474;2022-07-19T14:17:29;1.10;;;1.00;;
56790;SDS011;42658;46.072;14.474;2022-07-19T14:19:56;0.80;;;0.80;;
56790;SDS011;42658;46.072;14.474;2022-07-19T14:22:23;1.02;;;0.90;;
56790;SDS011;42658;46.072;14.474;2022-07-19T14:24:50;0.77;;;0.77;;
56790;SDS011;42658;46.072;14.474;2022-07-19T14:27:16;1.42;;;1.02;;
56790;SDS011;42658;46.072;14.474;2022-07-19T14:29:43;0.98;;;0.93;;
56790;SDS011;42658;46.072;14.474;2022-07-19T14:32:10;1.05;;;0.95;;
56790;SDS011;42658;46.072;14.474;2022-07-19T14:34:37;0.90;;;0.82;;
56790;SDS011;42658;46.072;14.474;2022-07-19T14:37:06;1.30;;;0.90;;
56790;SDS011;42658;46.072;14.474;2022-07-19T14:39:33;1.30;;;1.00;;
56790;SDS011;42658;46.072;14.474;2022-07-19T14:42:02;0.85;;;0.70;;
56790;SDS011;42658;46.072;14.474;2022-07-19T14:44:30;1.17;;;1.08;;
56790;SDS011;42658;46.072;14.474;2022-07-19T14:46:57;1.40;;;0.80;;
56790;SDS011;42658;46.072;14.474;2022-07-19T14:49:24;0.70;;;0.70;;
56790;SDS011;42658;46.072;14.474;2022-07-19T14:51:52;0.70;;;0.70;;
56790;SDS011;42658;46.072;14.474;2022-07-19T14:54:19;0.77;;;0.77;;
56790;SDS011;42658;46.072;14.474;2022-07-19T14:56:50;1.52;;;1.00;;
56790;SDS011;42658;46.072;14.474;2022-07-19T14:59:17;0.75;;;0.75;;
56790;SDS011;42658;46.072;14.474;2022-07-19T15:01:45;1.08;;;0.95;;
56790;SDS011;42658;46.072;14.474;2022-07-19T15:04:12;0.98;;;0.90;;
56790;SDS011;42658;46.072;14.474;2022-07-19T15:06:39;1.00;;;0.90;;
56790;SDS011;42658;46.072;14.474;2022-07-19T15:09:08;2.45;;;0.95;;
56790;SDS011;42658;46.072;14.474;2022-07-19T15:11:36;1.25;;;0.90;;
56790;SDS011;42658;46.072;14.474;2022-07-19T15:14:03;0.93;;;0.85;;
56790;SDS011;42658;46.072;14.474;2022-07-19T15:16:30;1.00;;;0.90;;
56790;SDS011;42658;46.072;14.474;2022-07-19T15:18:57;0.90;;;0.90;;
56790;SDS011;42658;46.072;14.474;2022-07-19T15:21:24;0.88;;;0.88;;
56790;SDS011;42658;46.072;14.474;2022-07-19T15:23:51;1.00;;;0.90;;
56790;SDS011;42658;46.072;14.474;2022-07-19T15:26:26;1.00;;;0.90;;